Portada
METAR-TAF:

METAR-TAF

Aeroports :

Santa Caterina, Egipte

latitud: 28-41-07N, longitud: 034-03-45E, altitud: 1331 m

METAR: manca

Hora: 02:52 (00:52 UTC)

Pronòstic

L'informe es va fer fa 1 hora i 52 minuts, a les 23:00 UTC
Pronòstic vàlid del 21 a les 00 UTC al 22 a les 06 UTC
Vent 10 kt del Oest
Visibilitat 10 km o més
sense núvols per sota de 1500 mi sense presència de cumulonimbus.

TAF: HESC 202300Z 2100/2206 27010KT CAVOK

Observacions i pronòstics meteorològics de més de 4000 aeroports (METAR i TAF).

Les estacions disponibles són els punts grocs i vermells al mapa.

Posi el ratolí al punt desitjat per veure el nom de l'estació.

Feu clic per veure les observacions i els pronòstics meteorològics.

Per canviar el mapa: feu clic els botons verds amb una creu de color negre per apropar; al botó verd amb un guió per allunyar la imatge; o en les fletxes verdes per a mapes adjacents.


METAR-TAF: